createdAt,value
2019-03-30T00:00:29.773Z,65.80
2019-03-30T00:02:59.183Z,65.90
2019-03-30T00:05:28.482Z,65.60
2019-03-30T00:07:58.386Z,65.50
2019-03-30T00:10:27.980Z,65.50
2019-03-30T00:12:57.902Z,65.40
2019-03-30T00:15:27.285Z,65.40
2019-03-30T00:17:56.752Z,65.50
2019-03-30T00:20:26.127Z,65.60
2019-03-30T00:22:55.434Z,65.50
2019-03-30T00:25:25.327Z,65.30
2019-03-30T00:27:54.635Z,64.90
2019-03-30T00:30:24.236Z,63.30
2019-03-30T00:32:53.577Z,64.30
2019-03-30T00:35:23.110Z,63.80
2019-03-30T00:37:52.415Z,64.30
2019-03-30T00:40:21.699Z,65.00
2019-03-30T00:42:51.231Z,65.50
2019-03-30T00:45:20.873Z,65.70
2019-03-30T00:47:50.197Z,66.10
2019-03-30T00:50:19.875Z,65.50
2019-03-30T00:52:49.459Z,66.20
2019-03-30T00:55:18.868Z,65.80
2019-03-30T00:57:48.458Z,66.10
2019-03-30T01:00:18.264Z,66.30
2019-03-30T01:02:47.736Z,66.30
2019-03-30T01:05:17.216Z,66.30
2019-03-30T01:07:47.175Z,66.30
2019-03-30T01:10:16.585Z,66.50
2019-03-30T01:12:46.241Z,66.70
2019-03-30T01:15:15.767Z,66.60
2019-03-30T01:17:45.163Z,66.80
2019-03-30T01:20:14.634Z,66.70
2019-03-30T01:22:44.036Z,66.40
2019-03-30T01:25:14.012Z,67.10
2019-03-30T01:27:43.344Z,66.50
2019-03-30T01:30:23.072Z,66.50
2019-03-30T01:32:44.677Z,66.80
2019-03-30T01:35:14.105Z,66.90
2019-03-30T01:37:43.772Z,66.90
2019-03-30T01:40:13.709Z,67.20
2019-03-30T01:42:43.366Z,67.20
2019-03-30T01:45:13.366Z,67.00
2019-03-30T01:47:42.908Z,67.20
2019-03-30T01:50:17.760Z,67.30
2019-03-30T01:52:43.738Z,67.60
2019-03-30T01:55:13.314Z,67.80
2019-03-30T01:57:42.640Z,67.80
2019-03-30T02:00:12.784Z,68.00
2019-03-30T02:02:42.572Z,68.10
2019-03-30T02:05:12.028Z,68.10
2019-03-30T02:07:41.700Z,68.40
2019-03-30T02:10:11.956Z,68.60
2019-03-30T02:12:41.287Z,68.50
2019-03-30T02:15:11.421Z,68.90
2019-03-30T02:17:59.766Z,69.10
2019-03-30T02:20:38.836Z,69.10
2019-03-30T02:23:08.481Z,69.10
2019-03-30T02:25:37.835Z,69.80
2019-03-30T02:28:07.409Z,69.70
2019-03-30T02:30:37.276Z,70.30
2019-03-30T02:33:07.390Z,70.60
2019-03-30T02:35:36.852Z,70.50
2019-03-30T02:38:06.639Z,69.40
2019-03-30T02:40:36.023Z,69.90
2019-03-30T02:43:05.772Z,70.10
2019-03-30T02:45:35.591Z,70.40
2019-03-30T02:48:05.150Z,70.50
2019-03-30T02:50:48.502Z,70.20
2019-03-30T02:53:05.657Z,70.10
2019-03-30T02:55:35.413Z,69.70
2019-03-30T02:58:05.090Z,69.30
2019-03-30T03:00:34.521Z,69.00
2019-03-30T03:03:04.253Z,68.60
2019-03-30T03:05:33.564Z,68.20
2019-03-30T03:08:02.978Z,67.90
2019-03-30T03:10:32.472Z,67.50
2019-03-30T03:13:02.176Z,67.20
2019-03-30T03:15:31.644Z,66.90
2019-03-30T03:18:00.958Z,66.70
2019-03-30T03:20:30.309Z,66.60
2019-03-30T03:22:59.705Z,66.10
2019-03-30T03:25:29.389Z,66.00
2019-03-30T03:27:58.756Z,65.80
2019-03-30T03:30:28.435Z,65.70
2019-03-30T03:32:58.052Z,65.50
2019-03-30T03:35:27.455Z,65.20
2019-03-30T03:37:56.841Z,65.20
2019-03-30T03:40:26.184Z,65.30
2019-03-30T03:42:56.069Z,65.20
2019-03-30T03:45:25.573Z,65.20
2019-03-30T03:47:55.358Z,65.10
2019-03-30T03:50:37.973Z,65.00
2019-03-30T03:53:08.059Z,65.30
2019-03-30T03:55:39.748Z,65.30
2019-03-30T03:58:10.913Z,65.20
2019-03-30T04:00:40.782Z,65.20
2019-03-30T04:03:11.760Z,65.00
2019-03-30T04:05:44.406Z,65.10
2019-03-30T04:08:14.624Z,65.10
2019-03-30T04:10:47.598Z,64.90
2019-03-30T04:13:17.132Z,65.10
2019-03-30T04:15:46.824Z,65.10
2019-03-30T04:18:17.307Z,65.00
2019-03-30T04:20:46.643Z,64.70
2019-03-30T04:23:15.952Z,64.80
2019-03-30T04:25:45.363Z,64.10
2019-03-30T04:28:14.780Z,62.50
2019-03-30T04:30:44.375Z,63.00
2019-03-30T04:33:13.742Z,64.10
2019-03-30T04:35:43.052Z,64.90
2019-03-30T04:38:14.431Z,63.70
2019-03-30T04:40:43.456Z,62.00
2019-03-30T04:43:12.876Z,62.60
2019-03-30T04:45:42.316Z,63.30
2019-03-30T04:48:12.043Z,64.50
2019-03-30T04:50:41.416Z,65.50
2019-03-30T04:53:10.784Z,66.30
2019-03-30T04:55:40.847Z,66.70
2019-03-30T04:58:10.209Z,67.30
2019-03-30T05:00:40.257Z,67.90
2019-03-30T05:03:09.581Z,67.90
2019-03-30T05:05:38.982Z,67.70
2019-03-30T05:08:08.659Z,67.00
2019-03-30T05:10:37.972Z,66.80
2019-03-30T05:13:07.323Z,66.80
2019-03-30T05:15:36.777Z,66.80
2019-03-30T05:18:06.092Z,67.20
2019-03-30T05:20:35.744Z,67.00
2019-03-30T05:23:05.059Z,67.00
2019-03-30T05:25:34.746Z,66.90
2019-03-30T05:28:04.697Z,66.90
2019-03-30T05:30:34.312Z,66.50
2019-03-30T05:33:06.129Z,66.30
2019-03-30T05:35:35.299Z,66.20
2019-03-30T05:38:05.047Z,65.80
2019-03-30T05:40:34.400Z,65.20
2019-03-30T05:43:04.168Z,65.40
2019-03-30T05:45:33.823Z,65.50
2019-03-30T05:48:03.147Z,65.80
2019-03-30T05:50:32.537Z,65.60
2019-03-30T05:53:02.167Z,65.50
2019-03-30T05:55:31.734Z,65.70
2019-03-30T05:58:01.077Z,65.50
2019-03-30T06:00:30.564Z,65.50
2019-03-30T06:02:59.963Z,65.10
2019-03-30T06:05:29.588Z,64.80
2019-03-30T06:07:58.919Z,65.10
2019-03-30T06:10:28.475Z,64.60
2019-03-30T06:12:57.832Z,64.40
2019-03-30T06:15:27.299Z,64.10
2019-03-30T06:17:56.709Z,63.40
2019-03-30T06:20:26.003Z,63.30
2019-03-30T06:22:55.982Z,63.00
2019-03-30T06:25:25.360Z,62.90
2019-03-30T06:27:55.393Z,63.10
2019-03-30T06:30:28.980Z,62.60
2019-03-30T06:32:58.295Z,62.30
2019-03-30T06:35:28.512Z,62.00
2019-03-30T06:37:57.823Z,61.80
2019-03-30T06:40:27.166Z,61.50
2019-03-30T06:42:56.924Z,61.20
2019-03-30T06:45:26.521Z,60.40
2019-03-30T06:47:56.144Z,60.00
2019-03-30T06:50:25.617Z,59.90
2019-03-30T06:52:58.119Z,59.80
2019-03-30T06:55:26.051Z,59.80
2019-03-30T06:57:55.424Z,59.50
2019-03-30T07:00:33.491Z,59.80
2019-03-30T07:03:05.415Z,59.30
2019-03-30T07:05:41.636Z,59.10
2019-03-30T07:08:14.019Z,58.40
2019-03-30T07:10:45.106Z,58.10
2019-03-30T07:13:15.269Z,58.00
2019-03-30T07:15:50.780Z,58.20
2019-03-30T07:18:20.734Z,57.80
2019-03-30T07:20:50.349Z,57.90
2019-03-30T07:23:20.120Z,57.10
2019-03-30T07:25:49.444Z,57.30
2019-03-30T07:28:19.101Z,57.30
2019-03-30T07:30:49.243Z,57.10
2019-03-30T07:33:18.563Z,57.50
2019-03-30T07:35:47.903Z,58.00
2019-03-30T07:38:17.278Z,57.90
2019-03-30T07:40:46.671Z,57.70
2019-03-30T07:43:16.027Z,57.90
2019-03-30T07:45:45.333Z,57.60
2019-03-30T07:48:14.693Z,57.50
2019-03-30T07:50:44.080Z,57.60
2019-03-30T07:53:25.729Z,56.70
2019-03-30T07:55:45.125Z,57.20
2019-03-30T07:58:14.804Z,57.00
2019-03-30T08:00:44.154Z,56.00
2019-03-30T08:03:13.776Z,55.70
2019-03-30T08:05:43.085Z,55.40
2019-03-30T08:08:12.579Z,55.50
2019-03-30T08:10:42.264Z,55.20
2019-03-30T08:13:11.629Z,55.30
2019-03-30T08:15:41.281Z,55.10
2019-03-30T08:18:10.683Z,54.90
2019-03-30T08:20:40.681Z,54.90
2019-03-30T08:23:10.060Z,54.70
2019-03-30T08:25:39.492Z,54.30
2019-03-30T08:28:08.912Z,54.40
2019-03-30T08:30:38.547Z,54.90
2019-03-30T08:33:08.314Z,54.70
2019-03-30T08:35:38.079Z,53.90
2019-03-30T08:38:07.663Z,53.50
2019-03-30T08:40:37.335Z,53.50
2019-03-30T08:43:06.666Z,53.20
2019-03-30T08:45:36.420Z,53.00
2019-03-30T08:48:06.174Z,52.40
2019-03-30T08:50:35.982Z,52.10
2019-03-30T08:53:05.637Z,51.50
2019-03-30T08:55:35.063Z,51.50
2019-03-30T08:58:04.375Z,50.50
2019-03-30T09:00:41.383Z,50.80
2019-03-30T09:03:11.590Z,51.00
2019-03-30T09:05:41.448Z,50.70
2019-03-30T09:08:11.307Z,51.30
2019-03-30T09:10:40.995Z,50.40
2019-03-30T09:13:10.645Z,50.50
2019-03-30T09:15:40.056Z,49.70
2019-03-30T09:18:09.362Z,50.40
2019-03-30T09:20:38.793Z,50.40
2019-03-30T09:23:08.448Z,50.50
2019-03-30T09:25:37.771Z,49.20
2019-03-30T09:28:07.679Z,49.50
2019-03-30T09:30:37.640Z,49.40
2019-03-30T09:33:07.060Z,50.50
2019-03-30T09:35:36.425Z,49.80
2019-03-30T09:38:05.728Z,49.00
2019-03-30T09:40:35.056Z,49.70
2019-03-30T09:43:04.458Z,48.70
2019-03-30T09:45:33.802Z,48.20
2019-03-30T09:48:03.642Z,48.70
2019-03-30T09:50:33.216Z,48.50
2019-03-30T09:53:02.960Z,48.60
2019-03-30T09:55:32.708Z,48.30
2019-03-30T09:58:02.206Z,48.50
2019-03-30T10:00:31.927Z,48.70
2019-03-30T10:03:01.335Z,46.90
2019-03-30T10:05:30.714Z,46.20
2019-03-30T10:08:00.064Z,46.60
2019-03-30T10:10:29.509Z,46.40
2019-03-30T10:12:59.485Z,46.30
2019-03-30T10:15:28.913Z,46.00
2019-03-30T10:17:58.666Z,46.50
2019-03-30T10:20:28.091Z,46.10
2019-03-30T10:22:57.719Z,44.50
2019-03-30T10:25:27.072Z,44.50
2019-03-30T10:27:57.199Z,44.70
2019-03-30T10:30:26.599Z,44.60
2019-03-30T10:32:56.937Z,45.30
2019-03-30T10:35:27.100Z,44.30
2019-03-30T10:37:56.587Z,44.10
2019-03-30T10:40:26.299Z,44.10
2019-03-30T10:42:56.015Z,44.80
2019-03-30T10:45:25.752Z,43.90
2019-03-30T10:47:55.936Z,44.70
2019-03-30T10:50:26.215Z,44.50
2019-03-30T10:52:56.131Z,44.40
2019-03-30T10:55:25.499Z,44.40
2019-03-30T10:57:58.308Z,42.60
2019-03-30T11:00:37.662Z,43.80
2019-03-30T11:03:07.607Z,42.20
2019-03-30T11:05:37.131Z,42.20
2019-03-30T11:08:06.561Z,43.60
2019-03-30T11:10:36.513Z,41.60
2019-03-30T11:13:06.178Z,42.20
2019-03-30T11:15:35.609Z,41.50
2019-03-30T11:18:05.130Z,41.40
2019-03-30T11:20:35.027Z,41.70
2019-03-30T11:23:04.448Z,40.30
2019-03-30T11:25:33.855Z,41.90
2019-03-30T11:28:03.568Z,41.80
2019-03-30T11:30:33.544Z,41.20
2019-03-30T11:33:02.905Z,41.70
2019-03-30T11:35:32.264Z,41.10
2019-03-30T11:38:01.665Z,41.50
2019-03-30T11:40:31.139Z,41.40
2019-03-30T11:43:00.777Z,41.30
2019-03-30T11:45:31.022Z,40.20
2019-03-30T11:48:00.733Z,40.20
2019-03-30T11:50:30.713Z,40.80
2019-03-30T11:53:00.591Z,39.30
2019-03-30T11:55:30.244Z,40.60
2019-03-30T11:57:59.613Z,40.60
2019-03-30T12:00:29.001Z,39.90
2019-03-30T12:02:58.925Z,39.80
2019-03-30T12:05:28.398Z,40.40
2019-03-30T12:07:58.057Z,40.10
2019-03-30T12:10:27.687Z,39.40
2019-03-30T12:12:57.032Z,38.70
2019-03-30T12:15:26.435Z,39.50
2019-03-30T12:17:55.768Z,39.60
2019-03-30T12:20:25.534Z,39.30
2019-03-30T12:22:55.119Z,38.60
2019-03-30T12:25:34.732Z,38.80
2019-03-30T12:27:56.532Z,38.90
2019-03-30T12:30:28.410Z,38.70
2019-03-30T12:32:58.011Z,39.00
2019-03-30T12:35:27.419Z,39.20
2019-03-30T12:37:56.810Z,38.60
2019-03-30T12:40:26.408Z,38.10
2019-03-30T12:42:55.817Z,37.30
2019-03-30T12:45:25.297Z,37.30
2019-03-30T12:47:55.450Z,37.40
2019-03-30T12:50:24.844Z,37.30
2019-03-30T12:52:55.334Z,37.50
2019-03-30T12:55:24.691Z,36.60
2019-03-30T12:57:54.430Z,39.10
2019-03-30T13:00:23.751Z,38.00
2019-03-30T13:02:53.143Z,37.90
2019-03-30T13:05:22.536Z,37.50
2019-03-30T13:07:51.849Z,38.00
2019-03-30T13:10:21.258Z,38.20
2019-03-30T13:12:50.660Z,39.10
2019-03-30T13:15:20.357Z,37.60
2019-03-30T13:17:50.276Z,37.00
2019-03-30T13:20:19.970Z,37.40
2019-03-30T13:22:49.285Z,37.70
2019-03-30T13:25:18.624Z,37.30
2019-03-30T13:27:48.356Z,37.30
2019-03-30T13:30:18.064Z,36.80
2019-03-30T13:32:47.454Z,36.70
2019-03-30T13:35:16.800Z,37.30
2019-03-30T13:37:46.145Z,36.10
2019-03-30T13:40:15.895Z,36.30
2019-03-30T13:42:45.204Z,36.70
2019-03-30T13:45:14.906Z,36.70
2019-03-30T13:47:45.040Z,35.90
2019-03-30T13:50:15.153Z,36.20
2019-03-30T13:52:44.844Z,35.60
2019-03-30T13:55:15.093Z,34.90
2019-03-30T13:57:44.517Z,34.90
2019-03-30T14:00:14.458Z,35.10
2019-03-30T14:02:44.144Z,35.80
2019-03-30T14:05:13.796Z,36.30
2019-03-30T14:07:43.461Z,36.50
2019-03-30T14:10:15.344Z,35.20
2019-03-30T14:12:45.018Z,35.10
2019-03-30T14:15:14.696Z,34.80
2019-03-30T14:17:44.326Z,35.10
2019-03-30T14:20:13.815Z,35.10
2019-03-30T14:22:43.356Z,35.50
2019-03-30T14:25:12.932Z,35.00
2019-03-30T14:27:42.528Z,35.70
2019-03-30T14:30:12.648Z,35.40
2019-03-30T14:32:41.944Z,35.20
2019-03-30T14:35:11.484Z,35.70
2019-03-30T14:37:40.889Z,35.50
2019-03-30T14:40:10.828Z,36.00
2019-03-30T14:42:40.135Z,35.60
2019-03-30T14:45:09.941Z,35.30
2019-03-30T14:47:40.027Z,35.50
2019-03-30T14:50:11.367Z,35.40
2019-03-30T14:52:41.012Z,35.80
2019-03-30T14:55:10.600Z,35.30
2019-03-30T14:57:39.948Z,35.40
2019-03-30T15:00:10.228Z,35.60
2019-03-30T15:02:39.583Z,35.40
2019-03-30T15:05:09.952Z,35.30
2019-03-30T15:07:40.187Z,35.50
2019-03-30T15:10:10.160Z,35.60
2019-03-30T15:12:40.670Z,35.30
2019-03-30T15:15:11.643Z,35.20
2019-03-30T15:17:41.573Z,35.40
2019-03-30T15:20:11.987Z,35.60
2019-03-30T15:22:42.251Z,35.30
2019-03-30T15:25:12.472Z,36.10
2019-03-30T15:27:41.950Z,35.60
2019-03-30T15:30:12.004Z,35.50
2019-03-30T15:32:41.651Z,36.00
2019-03-30T15:35:11.310Z,36.00
2019-03-30T15:37:41.024Z,36.00
2019-03-30T15:40:11.013Z,36.00
2019-03-30T15:42:40.793Z,36.10
2019-03-30T15:45:10.734Z,36.60
2019-03-30T15:47:40.206Z,36.10
2019-03-30T15:50:10.323Z,36.40
2019-03-30T15:52:39.652Z,36.20
2019-03-30T15:55:09.421Z,35.40
2019-03-30T15:57:38.752Z,36.50
2019-03-30T16:00:10.180Z,36.50
2019-03-30T16:02:40.597Z,37.10
2019-03-30T16:05:10.657Z,37.60
2019-03-30T16:07:40.268Z,37.60
2019-03-30T16:10:10.264Z,37.00
2019-03-30T16:12:39.886Z,37.60
2019-03-30T16:15:09.656Z,38.20
2019-03-30T16:17:39.325Z,37.20
2019-03-30T16:20:09.444Z,37.60
2019-03-30T16:22:39.939Z,36.40
2019-03-30T16:25:09.598Z,37.10
2019-03-30T16:27:39.629Z,37.20
2019-03-30T16:30:10.663Z,36.60
2019-03-30T16:32:40.113Z,35.80
2019-03-30T16:35:10.158Z,36.10
2019-03-30T16:37:40.145Z,36.30
2019-03-30T16:40:10.379Z,36.40
2019-03-30T16:42:40.452Z,36.40
2019-03-30T16:45:10.630Z,35.90
2019-03-30T16:47:40.299Z,35.90
2019-03-30T16:50:11.077Z,37.30
2019-03-30T16:52:41.132Z,37.40
2019-03-30T16:55:11.063Z,36.90
2019-03-30T16:57:44.359Z,36.60
2019-03-30T17:00:13.263Z,37.20
2019-03-30T17:02:43.163Z,37.80
2019-03-30T17:05:13.476Z,38.20
2019-03-30T17:07:42.812Z,38.80
2019-03-30T17:10:12.410Z,39.20
2019-03-30T17:12:42.560Z,39.90
2019-03-30T17:15:13.080Z,39.60
2019-03-30T17:17:43.135Z,39.80
2019-03-30T17:20:12.802Z,40.00
2019-03-30T17:22:42.441Z,40.20
2019-03-30T17:25:12.137Z,39.90
2019-03-30T17:27:41.892Z,39.70
2019-03-30T17:30:12.054Z,39.90
2019-03-30T17:32:41.740Z,39.80
2019-03-30T17:35:11.889Z,39.60
2019-03-30T17:37:41.748Z,39.40
2019-03-30T17:40:12.146Z,39.70
2019-03-30T17:42:41.820Z,40.00
2019-03-30T17:45:11.680Z,40.30
2019-03-30T17:47:40.988Z,40.70
2019-03-30T17:50:12.141Z,41.00
2019-03-30T17:52:41.493Z,41.40
2019-03-30T17:55:11.396Z,42.20
2019-03-30T17:57:41.024Z,42.50
2019-03-30T18:00:12.990Z,42.70
2019-03-30T18:02:42.566Z,43.00
2019-03-30T18:05:12.137Z,43.50
2019-03-30T18:07:41.512Z,43.80
2019-03-30T18:10:11.402Z,43.60
2019-03-30T18:12:40.711Z,43.80
2019-03-30T18:15:10.742Z,44.10
2019-03-30T18:17:40.693Z,44.60
2019-03-30T18:20:10.254Z,45.10
2019-03-30T18:22:39.642Z,45.40
2019-03-30T18:25:09.975Z,45.70
2019-03-30T18:27:39.287Z,46.10
2019-03-30T18:30:11.053Z,46.40
2019-03-30T18:32:41.061Z,46.30
2019-03-30T18:35:10.977Z,46.40
2019-03-30T18:37:40.909Z,46.30
2019-03-30T18:40:12.063Z,46.20
2019-03-30T18:42:41.895Z,46.30
2019-03-30T18:45:15.460Z,46.50
2019-03-30T18:47:44.791Z,46.60
2019-03-30T18:50:14.192Z,46.10
2019-03-30T18:52:45.231Z,45.30
2019-03-30T18:55:19.305Z,45.50
2019-03-30T18:57:48.946Z,45.20
2019-03-30T19:00:24.157Z,45.40
2019-03-30T19:02:54.085Z,45.00
2019-03-30T19:05:23.579Z,45.00
2019-03-30T19:07:53.387Z,44.50
2019-03-30T19:10:23.173Z,44.80
2019-03-30T19:12:52.777Z,44.40
2019-03-30T19:15:22.127Z,44.10
2019-03-30T19:17:51.541Z,43.50
2019-03-30T19:20:21.607Z,43.40
2019-03-30T19:22:51.213Z,42.90
2019-03-30T19:25:20.536Z,43.20
2019-03-30T19:27:50.423Z,43.30
2019-03-30T19:30:20.565Z,42.60
2019-03-30T19:32:50.192Z,41.90
2019-03-30T19:35:19.869Z,42.30
2019-03-30T19:37:49.174Z,42.80
2019-03-30T19:40:18.600Z,43.10
2019-03-30T19:42:48.223Z,42.70
2019-03-30T19:45:17.951Z,42.90
2019-03-30T19:47:47.589Z,42.80
2019-03-30T19:50:17.597Z,42.80
2019-03-30T19:53:06.396Z,42.70
2019-03-30T19:55:35.752Z,42.70
2019-03-30T19:58:05.565Z,43.30
2019-03-30T20:00:38.396Z,43.80
2019-03-30T20:03:06.133Z,44.20
2019-03-30T20:05:35.487Z,44.60
2019-03-30T20:08:11.908Z,45.60
2019-03-30T20:10:35.988Z,45.20
2019-03-30T20:13:09.056Z,45.60
2019-03-30T20:15:36.644Z,45.80
2019-03-30T20:18:06.432Z,46.10
2019-03-30T20:20:35.824Z,46.10
2019-03-30T20:23:05.482Z,46.10
2019-03-30T20:25:35.137Z,46.20
2019-03-30T20:28:04.620Z,46.40
2019-03-30T20:30:34.157Z,46.70
2019-03-30T20:33:04.084Z,46.80
2019-03-30T20:35:33.788Z,47.20
2019-03-30T20:38:03.098Z,47.30
2019-03-30T20:40:32.527Z,47.30
2019-03-30T20:43:02.148Z,47.00
2019-03-30T20:45:31.883Z,48.00
2019-03-30T20:48:01.448Z,47.60
2019-03-30T20:50:30.754Z,47.50
2019-03-30T20:53:00.641Z,47.60
2019-03-30T20:55:30.023Z,47.70
2019-03-30T20:57:59.373Z,47.30
2019-03-30T21:00:29.060Z,47.80
2019-03-30T21:02:58.945Z,47.90
2019-03-30T21:05:28.660Z,48.00
2019-03-30T21:07:58.059Z,47.70
2019-03-30T21:10:27.463Z,47.70
2019-03-30T21:12:56.812Z,48.10
2019-03-30T21:15:26.167Z,48.00
2019-03-30T21:17:55.483Z,47.70
2019-03-30T21:20:24.833Z,47.80
2019-03-30T21:22:54.143Z,47.90
2019-03-30T21:25:23.726Z,48.00
2019-03-30T21:27:53.035Z,47.90
2019-03-30T21:30:22.447Z,48.00
2019-03-30T21:32:52.277Z,48.50
2019-03-30T21:35:21.694Z,48.30
2019-03-30T21:37:51.081Z,48.70
2019-03-30T21:40:20.407Z,48.30
2019-03-30T21:42:49.787Z,48.40
2019-03-30T21:45:19.211Z,48.70
2019-03-30T21:47:48.876Z,48.90
2019-03-30T21:50:18.262Z,48.60
2019-03-30T21:52:47.851Z,48.80
2019-03-30T21:55:17.172Z,48.70
2019-03-30T21:57:46.513Z,48.80
2019-03-30T22:00:29.074Z,49.00
2019-03-30T22:02:58.420Z,49.00
2019-03-30T22:05:27.987Z,49.50
2019-03-30T22:07:58.364Z,49.80
2019-03-30T22:10:28.872Z,50.10
2019-03-30T22:12:58.747Z,50.20
2019-03-30T22:15:28.631Z,50.60
2019-03-30T22:17:58.094Z,50.90
2019-03-30T22:20:27.794Z,51.30
2019-03-30T22:22:57.263Z,51.80
2019-03-30T22:25:26.597Z,51.90
2019-03-30T22:27:55.906Z,52.00
2019-03-30T22:30:25.538Z,52.40
2019-03-30T22:32:55.722Z,52.60
2019-03-30T22:35:25.210Z,52.80
2019-03-30T22:37:54.648Z,53.30
2019-03-30T22:40:24.030Z,53.30
2019-03-30T22:42:53.684Z,53.60
2019-03-30T22:45:23.349Z,53.60
2019-03-30T22:47:52.679Z,54.00
2019-03-30T22:50:22.290Z,54.40
2019-03-30T22:52:51.887Z,54.40
2019-03-30T22:55:21.204Z,54.80
2019-03-30T22:57:50.651Z,55.00
2019-03-30T23:00:39.459Z,55.10
2019-03-30T23:03:09.891Z,55.10
2019-03-30T23:05:39.612Z,55.30
2019-03-30T23:08:08.931Z,55.40
2019-03-30T23:10:38.913Z,56.00
2019-03-30T23:13:08.240Z,55.90
2019-03-30T23:15:37.575Z,56.30
2019-03-30T23:18:07.215Z,56.10
2019-03-30T23:20:36.560Z,56.00
2019-03-30T23:23:05.947Z,56.30
2019-03-30T23:25:35.281Z,56.60
2019-03-30T23:28:04.678Z,56.80
2019-03-30T23:30:34.311Z,56.70
2019-03-30T23:33:04.269Z,57.00
2019-03-30T23:35:33.580Z,57.40
2019-03-30T23:38:02.976Z,57.50
2019-03-30T23:40:32.565Z,57.90
2019-03-30T23:43:01.943Z,58.10
2019-03-30T23:45:31.289Z,58.20
2019-03-30T23:48:00.772Z,58.20
2019-03-30T23:50:30.078Z,58.20
2019-03-30T23:52:59.439Z,58.60
2019-03-30T23:55:29.464Z,58.70
2019-03-30T23:57:58.798Z,59.00
